TimeMST,TemperatureF,Dew PointF,Humidity,Sea Level PressureIn,VisibilityMPH,Wind Direction,Wind SpeedMPH,Gust SpeedMPH,PrecipitationIn,Events,Conditions,WindDirDegrees,DateUTC
12:15 AM,-2.2,-5.8,85,30.24,10.0,ESE,4.6,-,N/A,,Clear,110,2012-12-29 07:15:00
12:35 AM,-4.0,-5.8,92,30.24,10.0,ESE,4.6,-,N/A,,Clear,110,2012-12-29 07:35:00
12:55 AM,-4.0,-5.8,92,30.25,10.0,SE,4.6,-,N/A,,Clear,130,2012-12-29 07:55:00
1:15 AM,-4.0,-7.6,85,30.25,10.0,Calm,Calm,-,N/A,,Clear,0,2012-12-29 08:15:00
1:35 AM,-5.8,-7.6,92,30.25,10.0,Calm,Calm,-,N/A,,Clear,0,2012-12-29 08:35:00
2:15 AM,-5.8,-9.4,84,30.26,10.0,Calm,Calm,-,N/A,,Clear,0,2012-12-29 09:15:00
2:35 AM,-7.6,-9.4,92,30.27,10.0,Calm,Calm,-,N/A,,Clear,0,2012-12-29 09:35:00
2:55 AM,-5.8,-9.4,84,30.27,10.0,Calm,Calm,-,N/A,,Clear,0,2012-12-29 09:55:00
3:35 AM,-7.6,-9.4,92,30.27,10.0,Calm,Calm,-,N/A,,Clear,0,2012-12-29 10:35:00
3:55 AM,-7.6,-11.2,84,30.27,10.0,ESE,3.5,-,N/A,,Clear,120,2012-12-29 10:55:00
4:15 AM,-9.4,-11.2,92,30.27,10.0,ESE,3.5,-,N/A,,Clear,120,2012-12-29 11:15:00
4:35 AM,-9.4,-11.2,92,30.28,10.0,Calm,Calm,-,N/A,,Clear,0,2012-12-29 11:35:00
5:15 AM,-9.4,-11.2,92,30.28,10.0,East,5.8,-,N/A,,Clear,90,2012-12-29 12:15:00
5:35 AM,-9.4,-11.2,92,30.28,10.0,ENE,3.5,-,N/A,,Clear,60,2012-12-29 12:35:00
5:55 AM,-9.4,-11.2,92,30.28,10.0,Calm,Calm,-,N/A,,Clear,0,2012-12-29 12:55:00
6:15 AM,-11.2,-13.0,92,30.29,10.0,Calm,Calm,-,N/A,,Clear,0,2012-12-29 13:15:00
6:35 AM,-11.2,-14.8,84,30.29,10.0,Calm,Calm,-,N/A,,Clear,0,2012-12-29 13:35:00
6:50 AM,-11.2,-14.8,84,30.29,10.0,Calm,Calm,-,N/A,,Partly Cloudy,0,2012-12-29 13:50:00
7:50 AM,-11.2,-14.8,84,30.30,10.0,Variable,4.6,-,N/A,,Scattered Clouds,0,2012-12-29 14:50:00
8:50 AM,-9.4,-11.2,92,30.30,10.0,Variable,4.6,-,N/A,,Scattered Clouds,0,2012-12-29 15:50:00
9:50 AM,-7.6,-9.4,92,30.29,10.0,Calm,Calm,-,N/A,,Scattered Clouds,0,2012-12-29 16:50:00
10:50 AM,-2.2,-5.8,85,30.26,10.0,Calm,Calm,-,N/A,,Scattered Clouds,0,2012-12-29 17:50:00
11:50 AM,3.2,-2.2,78,30.21,10.0,Calm,Calm,-,N/A,,Scattered Clouds,0,2012-12-29 18:50:00
12:50 PM,6.8,-0.4,72,30.15,10.0,Calm,Calm,-,N/A,,Scattered Clouds,0,2012-12-29 19:50:00
1:50 PM,8.6,1.4,73,30.12,10.0,Calm,Calm,-,N/A,,Scattered Clouds,0,2012-12-29 20:50:00
2:50 PM,10.4,1.4,67,30.10,10.0,Calm,Calm,-,N/A,,Mostly Cloudy,0,2012-12-29 21:50:00
4:50 PM,10.4,3.2,73,30.06,10.0,Calm,Calm,-,N/A,,Scattered Clouds,0,2012-12-29 23:50:00
5:50 PM,8.6,3.2,79,30.05,10.0,Calm,Calm,-,N/A,,Scattered Clouds,0,2012-12-30 00:50:00
6:50 PM,5.0,1.4,85,30.05,10.0,Calm,Calm,-,N/A,,Scattered Clouds,0,2012-12-30 01:50:00
7:46 PM,3.2,-0.4,85,30.06,10.0,Calm,Calm,-,N/A,,Mostly Cloudy,0,2012-12-30 02:46:00
8:47 PM,-0.4,-2.2,92,30.07,10.0,Calm,Calm,-,N/A,,Partly Cloudy,0,2012-12-30 03:47:00
9:50 PM,-2.2,-4.0,92,30.08,10.0,Calm,Calm,-,N/A,,Partly Cloudy,0,2012-12-30 04:50:00
10:50 PM,-2.2,-5.8,85,30.08,10.0,Calm,Calm,-,N/A,,Partly Cloudy,0,2012-12-30 05:50:00
10:55 PM,-2.2,-5.8,85,30.08,10.0,East,3.5,-,N/A,,Clear,100,2012-12-30 05:55:00
11:15 PM,-2.2,-5.8,85,30.08,10.0,Calm,Calm,-,N/A,,Clear,0,2012-12-30 06:15:00
11:55 PM,-4.0,-7.6,85,30.07,10.0,Calm,Calm,-,N/A,,Clear,0,2012-12-30 06:55:00